createdAt,value
2018-09-24T00:00:50.500Z,7.34
2018-09-24T00:02:49.999Z,7.27
2018-09-24T00:04:50.394Z,7.21
2018-09-24T00:06:50.598Z,7.16
2018-09-24T00:08:50.635Z,7.12
2018-09-24T00:10:49.749Z,7.12
2018-09-24T00:12:49.917Z,7.13
2018-09-24T00:14:50.170Z,7.13
2018-09-24T00:16:50.367Z,7.15
2018-09-24T00:18:50.276Z,7.17
2018-09-24T00:20:50.288Z,7.25
2018-09-24T00:22:50.302Z,7.28
2018-09-24T00:24:50.423Z,7.34
2018-09-24T00:26:49.730Z,7.42
2018-09-24T00:28:49.917Z,7.48
2018-09-24T00:30:49.907Z,7.53
2018-09-24T00:32:50.022Z,7.57
2018-09-24T00:34:50.374Z,7.70
2018-09-24T00:36:49.722Z,7.75
2018-09-24T00:38:50.687Z,7.87
2018-09-24T00:40:49.797Z,7.90
2018-09-24T00:42:49.989Z,7.92
2018-09-24T00:44:49.935Z,7.94
2018-09-24T00:46:50.106Z,7.94
2018-09-24T00:48:50.110Z,7.95
2018-09-24T00:50:50.137Z,7.93
2018-09-24T00:52:50.267Z,7.93
2018-09-24T00:54:50.318Z,7.86
2018-09-24T00:56:50.383Z,7.85
2018-09-24T00:58:50.581Z,7.81
2018-09-24T01:00:50.639Z,7.78
2018-09-24T01:02:50.617Z,7.73
2018-09-24T01:04:50.185Z,7.74
2018-09-24T01:06:50.428Z,7.75
2018-09-24T01:08:50.561Z,7.75
2018-09-24T01:10:50.554Z,7.76
2018-09-24T01:12:50.554Z,7.79
2018-09-24T01:14:50.509Z,7.80
2018-09-24T01:16:49.729Z,7.81
2018-09-24T01:18:49.700Z,7.80
2018-09-24T01:20:50.695Z,7.78
2018-09-24T01:22:49.785Z,7.78
2018-09-24T01:24:49.971Z,7.79
2018-09-24T01:26:50.122Z,7.82
2018-09-24T01:28:50.105Z,7.82
2018-09-24T01:30:50.167Z,7.83
2018-09-24T01:32:50.251Z,7.86
2018-09-24T01:34:50.563Z,7.85
2018-09-24T01:36:49.774Z,7.85
2018-09-24T01:38:49.766Z,7.87
2018-09-24T01:40:49.793Z,7.88
2018-09-24T01:42:49.893Z,7.90
2018-09-24T01:44:49.972Z,7.90
2018-09-24T01:46:50.123Z,7.94
2018-09-24T01:48:50.133Z,7.96
2018-09-24T01:50:50.058Z,7.98
2018-09-24T01:52:50.030Z,8.00
2018-09-24T01:54:50.041Z,8.02
2018-09-24T01:56:50.448Z,8.03
2018-09-24T01:58:49.814Z,8.04
2018-09-24T02:00:49.898Z,8.06
2018-09-24T02:02:50.007Z,8.05
2018-09-24T02:04:50.231Z,8.03
2018-09-24T02:06:50.543Z,8.04
2018-09-24T02:08:50.532Z,8.04
2018-09-24T02:10:50.614Z,8.04
2018-09-24T02:12:50.592Z,8.03
2018-09-24T02:14:50.699Z,8.03
2018-09-24T02:16:49.885Z,8.03
2018-09-24T02:18:49.973Z,8.02
2018-09-24T02:20:49.978Z,8.01
2018-09-24T02:22:49.957Z,8.01
2018-09-24T02:24:49.965Z,8.03
2018-09-24T02:26:50.175Z,8.04
2018-09-24T02:28:50.285Z,8.05
2018-09-24T02:30:50.377Z,8.06
2018-09-24T02:32:50.276Z,8.06
2018-09-24T02:34:50.578Z,8.04
2018-09-24T02:36:49.949Z,8.00
2018-09-24T02:38:49.933Z,8.00
2018-09-24T02:40:49.933Z,7.99
2018-09-24T02:42:50.019Z,7.99
2018-09-24T02:44:50.091Z,7.99
2018-09-24T02:46:50.484Z,7.99
2018-09-24T02:48:50.407Z,8.01
2018-09-24T02:50:50.549Z,8.00
2018-09-24T02:52:50.686Z,8.00
2018-09-24T02:54:49.703Z,7.99
2018-09-24T02:56:49.885Z,7.99
2018-09-24T02:58:49.931Z,7.97
2018-09-24T03:00:49.875Z,7.97
2018-09-24T03:02:49.905Z,7.92
2018-09-24T03:04:50.138Z,7.91
2018-09-24T03:06:50.342Z,7.89
2018-09-24T03:08:50.303Z,7.89
2018-09-24T03:10:50.398Z,7.86
2018-09-24T03:12:50.377Z,7.85
2018-09-24T03:14:50.353Z,7.82
2018-09-24T03:16:50.571Z,7.77
2018-09-24T03:18:50.486Z,7.76
2018-09-24T03:20:50.641Z,7.74
2018-09-24T03:22:50.730Z,7.70
2018-09-24T03:24:49.694Z,7.64
2018-09-24T03:26:49.936Z,7.62
2018-09-24T03:28:49.965Z,7.55
2018-09-24T03:30:49.986Z,7.52
2018-09-24T03:32:50.100Z,7.47
2018-09-24T03:34:50.372Z,7.35
2018-09-24T03:36:50.541Z,7.31
2018-09-24T03:38:50.477Z,7.31
2018-09-24T03:40:50.458Z,7.31
2018-09-24T03:42:50.461Z,7.31
2018-09-24T03:44:50.465Z,7.27
2018-09-24T03:46:50.626Z,7.26
2018-09-24T03:48:50.511Z,7.27
2018-09-24T03:50:50.504Z,7.28
2018-09-24T03:52:50.568Z,7.24
2018-09-24T03:54:50.565Z,7.23
2018-09-24T03:56:49.788Z,7.21
2018-09-24T03:58:50.165Z,7.16
2018-09-24T04:00:50.372Z,7.13
2018-09-24T04:02:50.409Z,7.12
2018-09-24T04:04:49.781Z,7.14
2018-09-24T04:06:49.871Z,7.11
2018-09-24T04:08:49.855Z,7.13
2018-09-24T04:10:50.059Z,7.14
2018-09-24T04:12:50.181Z,7.14
2018-09-24T04:14:50.196Z,7.11
2018-09-24T04:16:50.349Z,7.09
2018-09-24T04:18:50.351Z,7.08
2018-09-24T04:20:50.458Z,7.09
2018-09-24T04:22:50.454Z,7.10
2018-09-24T04:24:50.518Z,7.09
2018-09-24T04:26:50.221Z,7.06
2018-09-24T04:28:50.438Z,7.10
2018-09-24T04:30:50.491Z,7.08
2018-09-24T04:32:50.460Z,7.05
2018-09-24T04:34:49.905Z,6.99
2018-09-24T04:36:50.047Z,6.97
2018-09-24T04:38:49.980Z,6.97
2018-09-24T04:40:49.932Z,6.94
2018-09-24T04:42:50.039Z,6.94
2018-09-24T04:44:50.011Z,6.95
2018-09-24T04:46:50.077Z,6.90
2018-09-24T04:48:50.223Z,6.91
2018-09-24T04:50:50.255Z,6.89
2018-09-24T04:52:50.304Z,6.87
2018-09-24T04:54:50.320Z,6.89
2018-09-24T04:56:50.561Z,6.90
2018-09-24T04:58:50.553Z,6.90
2018-09-24T05:00:50.536Z,6.89
2018-09-24T05:02:50.602Z,6.88
2018-09-24T05:04:49.900Z,6.84
2018-09-24T05:06:50.049Z,6.85
2018-09-24T05:08:50.183Z,6.85
2018-09-24T05:10:50.207Z,6.84
2018-09-24T05:12:50.202Z,6.86
2018-09-24T05:14:50.223Z,6.86
2018-09-24T05:16:50.343Z,6.86
2018-09-24T05:18:50.321Z,6.85
2018-09-24T05:20:50.353Z,6.82
2018-09-24T05:22:50.283Z,6.81
2018-09-24T05:24:50.216Z,6.82
2018-09-24T05:26:50.340Z,6.82
2018-09-24T05:28:50.293Z,6.84
2018-09-24T05:30:50.277Z,6.84
2018-09-24T05:32:50.274Z,6.88
2018-09-24T05:34:50.688Z,6.90
2018-09-24T05:36:50.494Z,6.90
2018-09-24T05:38:50.474Z,6.90
2018-09-24T05:40:50.438Z,6.90
2018-09-24T05:42:50.418Z,6.93
2018-09-24T05:44:50.460Z,6.95
2018-09-24T05:46:50.570Z,6.99
2018-09-24T05:48:49.708Z,7.01
2018-09-24T05:50:49.730Z,7.02
2018-09-24T05:52:49.756Z,7.02
2018-09-24T05:54:49.890Z,7.00
2018-09-24T05:56:50.054Z,7.01
2018-09-24T05:58:50.071Z,7.03
2018-09-24T06:00:50.130Z,7.12
2018-09-24T06:02:50.263Z,7.15
2018-09-24T06:04:50.525Z,7.25
2018-09-24T06:06:49.900Z,7.28
2018-09-24T06:08:49.982Z,7.37
2018-09-24T06:10:49.953Z,7.41
2018-09-24T06:12:49.980Z,7.48
2018-09-24T06:14:49.983Z,7.52
2018-09-24T06:16:50.142Z,7.55
2018-09-24T06:18:50.201Z,7.59
2018-09-24T06:20:50.325Z,7.61
2018-09-24T06:22:50.341Z,7.64
2018-09-24T06:24:50.364Z,7.73
2018-09-24T06:26:50.508Z,7.79
2018-09-24T06:28:50.630Z,7.79
2018-09-24T06:30:49.823Z,7.80
2018-09-24T06:32:49.835Z,7.87
2018-09-24T06:34:50.184Z,7.99
2018-09-24T06:36:50.365Z,8.03
2018-09-24T06:38:50.433Z,8.18
2018-09-24T06:40:50.475Z,8.2
2018-09-24T06:42:50.447Z,8.33
2018-09-24T06:44:50.420Z,8.34
2018-09-24T06:46:49.933Z,8.36
2018-09-24T06:48:49.941Z,8.36
2018-09-24T06:50:49.939Z,8.36
2018-09-24T06:52:49.950Z,8.45
2018-09-24T06:54:50.003Z,8.48
2018-09-24T06:56:50.148Z,8.47
2018-09-24T06:58:50.123Z,8.48
2018-09-24T07:00:50.115Z,8.42
2018-09-24T07:02:50.076Z,8.41
2018-09-24T07:04:50.314Z,8.44
2018-09-24T07:06:50.585Z,8.44
2018-09-24T07:08:50.559Z,8.43
2018-09-24T07:10:50.449Z,8.47
2018-09-24T07:12:50.506Z,8.53
2018-09-24T07:14:50.460Z,8.53
2018-09-24T07:16:49.741Z,8.46
2018-09-24T07:18:50.029Z,8.46
2018-09-24T07:20:50.061Z,8.52
2018-09-24T07:22:50.022Z,8.50
2018-09-24T07:24:49.993Z,8.51
2018-09-24T07:26:50.056Z,8.56
2018-09-24T07:28:50.057Z,8.58
2018-09-24T07:30:50.116Z,8.66
2018-09-24T07:32:50.122Z,8.72
2018-09-24T07:34:50.348Z,8.87
2018-09-24T07:36:50.470Z,8.99
2018-09-24T07:38:50.575Z,9.23
2018-09-24T07:40:50.548Z,9.21
2018-09-24T07:42:50.420Z,9.16
2018-09-24T07:44:50.399Z,9.19
2018-09-24T07:46:50.533Z,9.30
2018-09-24T07:48:50.500Z,9.39
2018-09-24T07:50:50.528Z,9.30
2018-09-24T07:52:50.447Z,9.21
2018-09-24T07:54:50.418Z,9.17
2018-09-24T07:56:50.551Z,9.30
2018-09-24T07:58:50.515Z,9.32
2018-09-24T08:00:50.640Z,9.33
2018-09-24T08:02:49.832Z,9.39
2018-09-24T08:04:50.148Z,9.65
2018-09-24T08:06:50.371Z,9.75
2018-09-24T08:08:50.294Z,9.82
2018-09-24T08:10:50.308Z,9.78
2018-09-24T08:12:50.611Z,9.66
2018-09-24T08:14:49.730Z,9.62
2018-09-24T08:16:49.904Z,9.64
2018-09-24T08:18:49.923Z,9.64
2018-09-24T08:20:49.939Z,9.62
2018-09-24T08:22:49.986Z,9.59
2018-09-24T08:24:49.978Z,9.68
2018-09-24T08:26:50.172Z,9.69
2018-09-24T08:28:50.311Z,9.79
2018-09-24T08:30:50.418Z,9.85
2018-09-24T08:32:50.359Z,9.94
2018-09-24T08:34:50.668Z,10.09
2018-09-24T08:36:49.970Z,10.22
2018-09-24T08:38:49.972Z,10.22
2018-09-24T08:40:50.065Z,10.31
2018-09-24T08:42:50.079Z,10.46
2018-09-24T08:44:50.105Z,10.8
2018-09-24T08:46:50.361Z,11.0
2018-09-24T08:48:50.317Z,11.2
2018-09-24T08:50:50.457Z,11.2
2018-09-24T08:52:50.493Z,10.98
2018-09-24T08:54:50.654Z,10.81
2018-09-24T08:56:50.235Z,10.36
2018-09-24T08:58:50.351Z,10.40
2018-09-24T09:00:50.362Z,10.60
2018-09-24T09:02:50.714Z,10.65
2018-09-24T09:04:50.214Z,10.89
2018-09-24T09:06:50.404Z,10.81
2018-09-24T09:08:50.314Z,10.89
2018-09-24T09:10:50.312Z,11.22
2018-09-24T09:12:50.272Z,11.5
2018-09-24T09:14:50.307Z,11.6
2018-09-24T09:16:50.481Z,11.64
2018-09-24T09:18:50.406Z,11.44
2018-09-24T09:20:50.486Z,11.38
2018-09-24T09:22:50.429Z,11.04
2018-09-24T09:24:50.407Z,11.02
2018-09-24T09:26:50.527Z,11.19
2018-09-24T09:28:50.544Z,11.33
2018-09-24T09:30:50.500Z,11.44
2018-09-24T09:32:50.529Z,11.49
2018-09-24T09:34:49.959Z,11.59
2018-09-24T09:36:50.141Z,11.59
2018-09-24T09:38:50.105Z,11.81
2018-09-24T09:40:50.132Z,11.81
2018-09-24T09:42:50.158Z,11.71
2018-09-24T09:44:50.161Z,11.78
2018-09-24T09:46:50.672Z,11.77
2018-09-24T09:48:49.808Z,11.59
2018-09-24T09:50:49.855Z,11.43
2018-09-24T09:52:49.932Z,11.57
2018-09-24T09:54:49.951Z,11.47
2018-09-24T09:56:50.050Z,11.33
2018-09-24T09:58:50.053Z,11.32
2018-09-24T10:00:50.271Z,11.32
2018-09-24T10:02:50.282Z,11.43
2018-09-24T10:04:50.941Z,11.77
2018-09-24T10:06:50.316Z,11.74
2018-09-24T10:08:50.372Z,11.62
2018-09-24T10:10:50.376Z,11.56
2018-09-24T10:12:50.399Z,11.75
2018-09-24T10:14:50.385Z,11.81
2018-09-24T10:16:50.526Z,12.16
2018-09-24T10:18:50.525Z,12.3
2018-09-24T10:20:50.498Z,12.4
2018-09-24T10:22:50.403Z,12.46
2018-09-24T10:24:50.397Z,12.5
2018-09-24T10:26:50.515Z,12.5
2018-09-24T10:28:50.462Z,12.6
2018-09-24T10:30:50.421Z,12.7
2018-09-24T10:32:50.365Z,12.8
2018-09-24T10:34:50.641Z,12.8
2018-09-24T10:36:49.963Z,12.8
2018-09-24T10:38:49.881Z,12.8
2018-09-24T10:40:49.971Z,12.9
2018-09-24T10:42:50.076Z,12.9
2018-09-24T10:44:49.990Z,12.63
2018-09-24T10:46:50.010Z,12.58
2018-09-24T10:48:49.950Z,12.65
2018-09-24T10:50:49.865Z,12.76
2018-09-24T10:52:50.049Z,12.77
2018-09-24T10:54:50.000Z,12.74
2018-09-24T10:56:50.112Z,12.56
2018-09-24T10:58:50.022Z,12.22
2018-09-24T11:00:50.089Z,12.16
2018-09-24T11:02:50.148Z,12.31
2018-09-24T11:04:50.965Z,12.43
2018-09-24T11:06:50.188Z,12.41
2018-09-24T11:08:50.170Z,12.32
2018-09-24T11:10:50.309Z,12.71
2018-09-24T11:12:50.272Z,13.1
2018-09-24T11:14:50.279Z,13.1
2018-09-24T11:16:51.736Z,13.2
2018-09-24T11:18:50.264Z,13.2
2018-09-24T11:20:50.211Z,13.3
2018-09-24T11:22:50.185Z,13.2
2018-09-24T11:24:50.186Z,12.82
2018-09-24T11:26:50.371Z,12.55
2018-09-24T11:28:50.381Z,12.46
2018-09-24T11:30:50.315Z,12.50
2018-09-24T11:32:50.305Z,13.2
2018-09-24T11:34:49.717Z,13.3
2018-09-24T11:36:49.779Z,13.4
2018-09-24T11:38:49.785Z,13.4
2018-09-24T11:40:49.818Z,13.5
2018-09-24T11:42:49.705Z,13.6
2018-09-24T11:44:49.723Z,13.6
2018-09-24T11:46:50.384Z,13.6
2018-09-24T11:48:49.751Z,13.6
2018-09-24T11:50:49.707Z,13.6
2018-09-24T11:52:50.671Z,13.6
2018-09-24T11:54:50.567Z,13.6
2018-09-24T11:56:49.738Z,13.7
2018-09-24T11:58:49.740Z,13.8
2018-09-24T12:00:49.711Z,13.8
2018-09-24T12:02:50.747Z,13.8
2018-09-24T12:04:50.213Z,13.9
2018-09-24T12:06:50.349Z,14.0
2018-09-24T12:08:50.280Z,14.0
2018-09-24T12:10:50.290Z,14.0
2018-09-24T12:12:50.266Z,14.1
2018-09-24T12:14:50.191Z,14.1
2018-09-24T12:16:50.318Z,14.2
2018-09-24T12:18:50.218Z,14.2
2018-09-24T12:20:50.207Z,14.2
2018-09-24T12:22:50.432Z,14.2
2018-09-24T12:24:50.417Z,14.2
2018-09-24T12:26:50.561Z,14.2
2018-09-24T12:28:50.567Z,14.2
2018-09-24T12:30:50.543Z,14.2
2018-09-24T12:32:50.607Z,14.2
2018-09-24T12:34:49.826Z,14.3
2018-09-24T12:36:49.858Z,14.4
2018-09-24T12:38:49.957Z,14.6
2018-09-24T12:40:49.969Z,14.6
2018-09-24T12:42:49.955Z,14.7
2018-09-24T12:44:49.948Z,14.8
2018-09-24T12:46:50.068Z,14.9
2018-09-24T12:48:50.074Z,15.0
2018-09-24T12:50:50.056Z,15.0
2018-09-24T12:52:50.039Z,15.1
2018-09-24T12:54:50.007Z,15.1
2018-09-24T12:56:50.164Z,15.1
2018-09-24T12:58:50.121Z,15.1
2018-09-24T13:00:50.078Z,15.2
2018-09-24T13:02:50.024Z,15.2
2018-09-24T13:04:50.303Z,15.3
2018-09-24T13:06:50.421Z,15.4
2018-09-24T13:08:50.440Z,15.4
2018-09-24T13:10:50.389Z,15.3
2018-09-24T13:12:50.398Z,15.2
2018-09-24T13:14:50.416Z,15.2
2018-09-24T13:16:50.600Z,15.2
2018-09-24T13:18:50.566Z,15.2
2018-09-24T13:20:50.686Z,15.3
2018-09-24T13:22:50.579Z,15.2
2018-09-24T13:24:50.488Z,15.2
2018-09-24T13:26:49.867Z,15.3
2018-09-24T13:28:49.893Z,15.15
2018-09-24T13:30:49.889Z,15.1
2018-09-24T13:32:50.264Z,14.86
2018-09-24T13:34:49.717Z,14.62
2018-09-24T13:36:50.078Z,14.37
2018-09-24T13:38:50.014Z,14.39
2018-09-24T13:40:50.032Z,14.49
2018-09-24T13:42:49.973Z,14.95
2018-09-24T13:44:49.949Z,15.00
2018-09-24T13:46:50.008Z,14.77
2018-09-24T13:48:50.009Z,14.67
2018-09-24T13:50:49.945Z,14.67
2018-09-24T13:52:50.106Z,15.0
2018-09-24T13:54:50.062Z,15.0
2018-09-24T13:56:50.248Z,15.0
2018-09-24T13:58:50.196Z,15.0
2018-09-24T14:00:50.127Z,15.1
2018-09-24T14:02:50.091Z,15.2
2018-09-24T14:04:50.297Z,15.2
2018-09-24T14:06:50.459Z,15.2
2018-09-24T14:08:50.542Z,15.1
2018-09-24T14:10:50.634Z,15.0
2018-09-24T14:12:50.571Z,15.0
2018-09-24T14:14:50.571Z,14.9
2018-09-24T14:16:49.701Z,14.9
2018-09-24T14:18:50.652Z,15.0
2018-09-24T14:20:49.891Z,15.1
2018-09-24T14:22:49.830Z,15.1
2018-09-24T14:24:49.803Z,15.2
2018-09-24T14:26:50.000Z,15.2
2018-09-24T14:28:49.943Z,15.2
2018-09-24T14:30:49.871Z,15.2
2018-09-24T14:32:49.910Z,15.2
2018-09-24T14:34:50.187Z,15.3
2018-09-24T14:36:50.394Z,15.2
2018-09-24T14:38:50.348Z,15.2
2018-09-24T14:40:50.313Z,15.2
2018-09-24T14:42:50.340Z,15.1
2018-09-24T14:44:50.261Z,15.1
2018-09-24T14:46:50.406Z,15.0
2018-09-24T14:48:50.342Z,15.0
2018-09-24T14:50:50.285Z,14.69
2018-09-24T14:52:50.257Z,14.60
2018-09-24T14:54:50.258Z,14.9
2018-09-24T14:56:50.349Z,14.9
2018-09-24T14:58:50.367Z,14.8
2018-09-24T15:00:50.298Z,14.8
2018-09-24T15:02:50.259Z,14.8
2018-09-24T15:04:50.628Z,15.0
2018-09-24T15:06:49.865Z,15.0
2018-09-24T15:08:49.914Z,15.0
2018-09-24T15:10:49.925Z,15.1
2018-09-24T15:12:49.878Z,15.2
2018-09-24T15:14:49.885Z,15.2
2018-09-24T15:16:50.253Z,15.2
2018-09-24T15:18:50.232Z,15.2
2018-09-24T15:20:50.183Z,15.2
2018-09-24T15:22:50.253Z,15.2
2018-09-24T15:24:50.225Z,15.2
2018-09-24T15:26:50.373Z,15.2
2018-09-24T15:28:50.494Z,15.2
2018-09-24T15:30:50.568Z,15.1
2018-09-24T15:32:50.519Z,14.91
2018-09-24T15:34:49.806Z,14.82
2018-09-24T15:36:50.324Z,14.65
2018-09-24T15:38:50.193Z,14.51
2018-09-24T15:40:50.385Z,14.56
2018-09-24T15:42:50.427Z,14.62
2018-09-24T15:44:50.553Z,14.53
2018-09-24T15:46:49.724Z,14.44
2018-09-24T15:48:50.703Z,14.45
2018-09-24T15:50:50.678Z,14.35
2018-09-24T15:52:50.652Z,14.08
2018-09-24T15:54:50.566Z,13.99
2018-09-24T15:56:49.949Z,13.89
2018-09-24T15:58:49.951Z,13.86
2018-09-24T16:00:49.917Z,13.78
2018-09-24T16:02:50.218Z,13.76
2018-09-24T16:04:50.543Z,13.66
2018-09-24T16:06:49.727Z,13.55
2018-09-24T16:08:49.756Z,13.55
2018-09-24T16:10:49.732Z,13.50
2018-09-24T16:12:49.719Z,13.47
2018-09-24T16:14:49.735Z,13.33
2018-09-24T16:16:49.778Z,13.23
2018-09-24T16:18:49.910Z,13.09
2018-09-24T16:20:49.945Z,13.05
2018-09-24T16:22:49.992Z,13.04
2018-09-24T16:24:50.127Z,13.01
2018-09-24T16:26:50.318Z,12.95
2018-09-24T16:28:50.252Z,12.90
2018-09-24T16:30:50.246Z,12.80
2018-09-24T16:32:50.217Z,12.76
2018-09-24T16:34:50.581Z,12.66
2018-09-24T16:36:49.762Z,12.61
2018-09-24T16:38:49.759Z,12.51
2018-09-24T16:40:49.874Z,12.45
2018-09-24T16:42:49.848Z,12.41
2018-09-24T16:44:49.871Z,12.33
2018-09-24T16:46:50.061Z,12.26
2018-09-24T16:48:50.095Z,12.22
2018-09-24T16:50:50.046Z,12.14
2018-09-24T16:52:49.999Z,12.08
2018-09-24T16:54:49.977Z,12.00
2018-09-24T16:56:50.187Z,11.96
2018-09-24T16:58:50.154Z,11.87
2018-09-24T17:00:50.197Z,11.81
2018-09-24T17:02:50.193Z,11.79
2018-09-24T17:04:50.443Z,11.73
2018-09-24T17:06:50.683Z,11.69
2018-09-24T17:08:50.705Z,11.62
2018-09-24T17:10:49.701Z,11.58
2018-09-24T17:12:49.896Z,11.52
2018-09-24T17:14:50.035Z,11.43
2018-09-24T17:16:50.277Z,11.32
2018-09-24T17:18:50.282Z,11.24
2018-09-24T17:20:50.344Z,11.20
2018-09-24T17:22:50.292Z,11.14
2018-09-24T17:24:50.300Z,11.15
2018-09-24T17:26:50.446Z,11.12
2018-09-24T17:28:50.355Z,11.12
2018-09-24T17:30:50.342Z,11.12
2018-09-24T17:32:50.672Z,11.07
2018-09-24T17:34:49.978Z,11.02
2018-09-24T17:36:50.187Z,10.92
2018-09-24T17:38:50.141Z,10.81
2018-09-24T17:40:50.125Z,10.78
2018-09-24T17:42:50.116Z,10.69
2018-09-24T17:44:50.054Z,10.63
2018-09-24T17:46:50.281Z,10.61
2018-09-24T17:48:50.196Z,10.54
2018-09-24T17:50:50.180Z,10.55
2018-09-24T17:52:50.395Z,10.52
2018-09-24T17:54:50.625Z,10.45
2018-09-24T17:56:49.918Z,10.38
2018-09-24T17:58:49.929Z,10.38
2018-09-24T18:00:49.887Z,10.41
2018-09-24T18:02:49.943Z,10.49
2018-09-24T18:04:50.197Z,10.55
2018-09-24T18:06:50.319Z,10.63
2018-09-24T18:08:50.344Z,10.67
2018-09-24T18:10:50.254Z,10.71
2018-09-24T18:12:50.249Z,10.73
2018-09-24T18:14:50.193Z,10.74
2018-09-24T18:16:50.281Z,10.74
2018-09-24T18:18:50.299Z,10.74
2018-09-24T18:20:50.294Z,10.67
2018-09-24T18:22:50.284Z,10.63
2018-09-24T18:24:50.280Z,10.54
2018-09-24T18:26:50.528Z,10.48
2018-09-24T18:28:50.591Z,10.45
2018-09-24T18:30:50.557Z,10.45
2018-09-24T18:32:50.499Z,10.43
2018-09-24T18:34:49.851Z,10.43
2018-09-24T18:36:50.015Z,10.44
2018-09-24T18:38:49.992Z,10.48
2018-09-24T18:40:50.036Z,10.48
2018-09-24T18:42:50.005Z,10.48
2018-09-24T18:44:49.917Z,10.50
2018-09-24T18:46:50.003Z,10.51
2018-09-24T18:48:50.155Z,10.53
2018-09-24T18:50:50.155Z,10.53
2018-09-24T18:52:50.108Z,10.54
2018-09-24T18:54:50.057Z,10.55
2018-09-24T18:56:50.232Z,10.58
2018-09-24T18:58:50.211Z,10.59
2018-09-24T19:00:50.427Z,10.59
2018-09-24T19:02:50.525Z,10.60
2018-09-24T19:04:49.837Z,10.60
2018-09-24T19:06:49.983Z,10.60
2018-09-24T19:08:49.981Z,10.60
2018-09-24T19:10:50.216Z,10.58
2018-09-24T19:12:50.264Z,10.56
2018-09-24T19:14:50.251Z,10.55
2018-09-24T19:16:50.503Z,10.54
2018-09-24T19:18:50.447Z,10.57
2018-09-24T19:20:50.500Z,10.57
2018-09-24T19:22:50.498Z,10.55
2018-09-24T19:24:50.486Z,10.54
2018-09-24T19:26:49.824Z,10.49
2018-09-24T19:28:49.830Z,10.43
2018-09-24T19:30:49.864Z,10.42
2018-09-24T19:32:49.981Z,10.32
2018-09-24T19:34:50.253Z,10.28
2018-09-24T19:36:50.717Z,10.22
2018-09-24T19:38:49.952Z,10.16
2018-09-24T19:40:49.975Z,10.09
2018-09-24T19:42:49.983Z,10.05
2018-09-24T19:44:49.959Z,9.99
2018-09-24T19:46:50.048Z,9.94
2018-09-24T19:48:50.017Z,9.94
2018-09-24T19:50:50.014Z,9.80
2018-09-24T19:52:49.986Z,9.77
2018-09-24T19:54:50.067Z,9.75
2018-09-24T19:56:50.342Z,9.63
2018-09-24T19:58:50.383Z,9.55
2018-09-24T20:00:50.375Z,9.52
2018-09-24T20:02:50.322Z,9.48
2018-09-24T20:04:49.819Z,9.47
2018-09-24T20:06:49.903Z,9.44
2018-09-24T20:08:49.924Z,9.45
2018-09-24T20:10:49.926Z,9.43
2018-09-24T20:12:49.974Z,9.40
2018-09-24T20:14:49.952Z,9.40
2018-09-24T20:16:50.650Z,9.37
2018-09-24T20:18:49.707Z,9.28
2018-09-24T20:20:49.741Z,9.21
2018-09-24T20:22:49.869Z,9.17
2018-09-24T20:24:49.881Z,9.14
2018-09-24T20:26:50.164Z,9.04
2018-09-24T20:28:50.122Z,9.04
2018-09-24T20:30:50.153Z,9.02
2018-09-24T20:32:50.078Z,8.96
2018-09-24T20:34:50.287Z,8.90
2018-09-24T20:36:50.491Z,8.87
2018-09-24T20:38:50.536Z,8.83
2018-09-24T20:40:50.472Z,8.80
2018-09-24T20:42:50.519Z,8.68
2018-09-24T20:44:50.675Z,8.61
2018-09-24T20:46:49.770Z,8.51
2018-09-24T20:48:50.016Z,8.40
2018-09-24T20:50:49.715Z,8.35
2018-09-24T20:52:49.973Z,8.32
2018-09-24T20:54:50.120Z,8.32
2018-09-24T20:56:50.262Z,8.14
2018-09-24T20:58:50.296Z,8.04
2018-09-24T21:00:50.275Z,7.99
2018-09-24T21:02:50.303Z,7.94
2018-09-24T21:04:50.522Z,7.81
2018-09-24T21:06:50.645Z,7.69
2018-09-24T21:08:50.626Z,7.67
2018-09-24T21:10:50.628Z,7.68
2018-09-24T21:12:50.629Z,7.64
2018-09-24T21:14:50.557Z,7.52
2018-09-24T21:16:49.711Z,7.42
2018-09-24T21:18:49.766Z,7.37
2018-09-24T21:20:49.747Z,7.36
2018-09-24T21:22:49.863Z,7.32
2018-09-24T21:24:49.843Z,7.26
2018-09-24T21:26:50.059Z,7.23
2018-09-24T21:28:50.077Z,7.15
2018-09-24T21:30:50.013Z,7.12
2018-09-24T21:32:50.213Z,7.03
2018-09-24T21:34:50.436Z,6.99
2018-09-24T21:36:50.579Z,6.89
2018-09-24T21:38:50.583Z,6.85
2018-09-24T21:40:50.589Z,6.81
2018-09-24T21:42:50.661Z,6.78
2018-09-24T21:44:50.119Z,6.74
2018-09-24T21:46:51.008Z,6.70
2018-09-24T21:48:50.229Z,6.70
2018-09-24T21:50:50.179Z,6.73
2018-09-24T21:52:50.188Z,6.75
2018-09-24T21:54:50.130Z,6.74
2018-09-24T21:56:50.314Z,6.74
2018-09-24T21:58:50.269Z,6.76
2018-09-24T22:00:50.258Z,6.79
2018-09-24T22:02:50.295Z,6.84
2018-09-24T22:04:49.889Z,6.87
2018-09-24T22:06:50.178Z,6.89
2018-09-24T22:08:50.267Z,6.90
2018-09-24T22:10:50.276Z,6.87
2018-09-24T22:12:50.265Z,6.86
2018-09-24T22:14:50.269Z,6.86
2018-09-24T22:16:50.388Z,6.89
2018-09-24T22:18:50.365Z,6.91
2018-09-24T22:20:50.319Z,6.87
2018-09-24T22:22:50.360Z,6.80
2018-09-24T22:24:50.309Z,6.80
2018-09-24T22:26:50.439Z,6.82
2018-09-24T22:28:50.346Z,6.80
2018-09-24T22:30:50.415Z,6.80
2018-09-24T22:32:50.387Z,6.79
2018-09-24T22:34:49.835Z,6.74
2018-09-24T22:36:50.212Z,6.75
2018-09-24T22:38:50.186Z,6.79
2018-09-24T22:40:50.150Z,6.83
2018-09-24T22:42:50.146Z,6.82
2018-09-24T22:44:50.160Z,6.85
2018-09-24T22:46:50.233Z,6.86
2018-09-24T22:48:50.179Z,6.84
2018-09-24T22:50:50.233Z,6.77
2018-09-24T22:52:50.225Z,6.73
2018-09-24T22:54:50.139Z,6.59
2018-09-24T22:56:50.388Z,6.51
2018-09-24T22:58:50.304Z,6.44
2018-09-24T23:00:50.313Z,6.33
2018-09-24T23:02:50.271Z,6.28
2018-09-24T23:04:50.422Z,6.21
2018-09-24T23:06:50.608Z,6.18
2018-09-24T23:08:50.648Z,6.16
2018-09-24T23:10:50.548Z,6.10
2018-09-24T23:12:50.694Z,6.05
2018-09-24T23:14:49.729Z,6.04
2018-09-24T23:16:49.954Z,6.06
2018-09-24T23:18:49.935Z,6.05
2018-09-24T23:20:49.939Z,6.13
2018-09-24T23:22:49.951Z,6.21
2018-09-24T23:24:49.955Z,6.26
2018-09-24T23:26:50.127Z,6.33
2018-09-24T23:28:50.096Z,6.45
2018-09-24T23:30:50.079Z,6.59
2018-09-24T23:32:50.136Z,6.77
2018-09-24T23:34:50.578Z,6.83
2018-09-24T23:36:49.840Z,6.91
2018-09-24T23:38:49.928Z,6.92
2018-09-24T23:40:49.863Z,6.94
2018-09-24T23:42:50.002Z,6.95
2018-09-24T23:44:49.969Z,6.95
2018-09-24T23:46:50.098Z,6.91
2018-09-24T23:48:50.094Z,6.86
2018-09-24T23:50:50.057Z,6.84
2018-09-24T23:52:50.041Z,6.78
2018-09-24T23:54:50.076Z,6.71
2018-09-24T23:56:50.397Z,6.65
2018-09-24T23:58:50.439Z,6.57
